createdAt,value
2023-05-04T00:01:37.887Z,100.00
2023-05-04T00:03:42.696Z,100.00
2023-05-04T00:05:47.912Z,100.00
2023-05-04T00:07:52.789Z,100.00
2023-05-04T00:10:00.394Z,100.00
2023-05-04T00:12:05.325Z,100.00
2023-05-04T00:14:10.240Z,100.00
2023-05-04T00:16:15.217Z,100.00
2023-05-04T00:18:20.218Z,100.00
2023-05-04T00:20:25.298Z,100.00
2023-05-04T00:22:30.182Z,100.00
2023-05-04T00:24:35.161Z,100.00
2023-05-04T00:26:42.703Z,100.00
2023-05-04T00:28:47.798Z,100.00
2023-05-04T00:30:52.663Z,100.00
2023-05-04T00:32:57.595Z,100.00
2023-05-04T00:35:03.251Z,100.00
2023-05-04T00:37:08.179Z,100.00
2023-05-04T00:39:13.112Z,100.00
2023-05-04T00:41:18.120Z,100.00
2023-05-04T00:43:25.557Z,100.00
2023-05-04T00:45:30.871Z,100.00
2023-05-04T00:47:35.978Z,100.00
2023-05-04T00:49:41.280Z,100.00
2023-05-04T00:51:47.687Z,100.00
2023-05-04T00:53:54.729Z,100.00
2023-05-04T00:56:01.030Z,100.00
2023-05-04T00:58:06.110Z,100.00
2023-05-04T01:00:15.736Z,100.00
2023-05-04T01:02:20.805Z,100.00
2023-05-04T01:04:25.756Z,100.00
2023-05-04T01:06:38.949Z,100.00
2023-05-04T01:08:49.304Z,100.00
2023-05-04T01:10:59.749Z,100.00
2023-05-04T01:13:09.882Z,100.00
2023-05-04T01:15:17.829Z,100.00
2023-05-04T01:17:23.243Z,100.00
2023-05-04T01:19:29.401Z,100.00
2023-05-04T01:21:37.165Z,100.00
2023-05-04T01:23:42.151Z,100.00
2023-05-04T01:25:52.714Z,100.00
2023-05-04T01:28:02.567Z,100.00
2023-05-04T01:30:12.689Z,100.00
2023-05-04T01:32:18.533Z,100.00
2023-05-04T01:34:25.296Z,100.00
2023-05-04T01:36:30.364Z,100.00
2023-05-04T01:38:40.695Z,100.00
2023-05-04T01:40:45.680Z,100.00
2023-05-04T01:42:50.886Z,100.00
2023-05-04T01:44:56.551Z,100.00
2023-05-04T01:47:01.426Z,100.00
2023-05-04T01:49:07.310Z,100.00
2023-05-04T01:51:12.152Z,100.00
2023-05-04T01:53:17.146Z,100.00
2023-05-04T01:55:24.628Z,100.00
2023-05-04T01:57:29.625Z,100.00
2023-05-04T01:59:34.755Z,100.00
2023-05-04T02:01:39.664Z,100.00
2023-05-04T02:03:45.017Z,100.00
2023-05-04T02:05:49.804Z,100.00
2023-05-04T02:07:54.690Z,100.00
2023-05-04T02:09:59.538Z,100.00
2023-05-04T02:12:07.184Z,100.00
2023-05-04T02:14:12.190Z,100.00
2023-05-04T02:16:17.187Z,100.00
2023-05-04T02:18:22.532Z,100.00
2023-05-04T02:20:27.427Z,100.00
2023-05-04T02:22:32.683Z,100.00
2023-05-04T02:24:37.330Z,100.00
2023-05-04T02:26:42.337Z,100.00
2023-05-04T02:28:50.192Z,100.00
2023-05-04T02:30:55.154Z,100.00
2023-05-04T02:33:00.031Z,100.00
2023-05-04T02:35:05.117Z,100.00
2023-05-04T02:37:09.962Z,100.00
2023-05-04T02:39:14.968Z,100.00
2023-05-04T02:41:19.866Z,100.00
2023-05-04T02:43:24.872Z,100.00
2023-05-04T02:45:33.399Z,100.00
2023-05-04T02:47:38.435Z,100.00
2023-05-04T02:49:43.768Z,100.00
2023-05-04T02:51:48.729Z,100.00
2023-05-04T02:53:53.653Z,100.00
2023-05-04T02:55:58.611Z,100.00
2023-05-04T02:58:03.571Z,100.00
2023-05-04T03:00:10.139Z,100.00
2023-05-04T03:02:17.698Z,100.00
2023-05-04T03:04:22.731Z,100.00
2023-05-04T03:06:27.729Z,100.00
2023-05-04T03:08:32.620Z,100.00
2023-05-04T03:10:37.684Z,100.00
2023-05-04T03:12:42.672Z,100.00
2023-05-04T03:14:47.593Z,100.00
2023-05-04T03:16:52.714Z,100.00
2023-05-04T03:19:01.092Z,100.00
2023-05-04T03:21:06.407Z,100.00
2023-05-04T03:23:11.938Z,100.00
2023-05-04T03:25:16.979Z,100.00
2023-05-04T03:27:22.193Z,100.00
2023-05-04T03:29:27.298Z,100.00
2023-05-04T03:31:33.731Z,100.00
2023-05-04T03:33:38.691Z,100.00
2023-05-04T03:35:46.297Z,100.00
2023-05-04T03:37:51.250Z,100.00
2023-05-04T03:39:56.320Z,100.00
2023-05-04T03:42:01.142Z,100.00
2023-05-04T03:44:06.125Z,100.00
2023-05-04T03:46:12.269Z,100.00
2023-05-04T03:48:17.246Z,100.00
2023-05-04T03:50:22.408Z,100.00
2023-05-04T03:52:29.875Z,100.00
2023-05-04T03:54:35.108Z,100.00
2023-05-04T03:56:39.997Z,100.00
2023-05-04T03:58:44.960Z,100.00
2023-05-04T04:00:52.263Z,100.00
2023-05-04T04:02:57.346Z,100.00
2023-05-04T04:05:02.368Z,100.00
2023-05-04T04:07:07.284Z,100.00
2023-05-04T04:09:14.812Z,100.00
2023-05-04T04:11:20.033Z,100.00
2023-05-04T04:13:24.713Z,100.00
2023-05-04T04:15:29.720Z,100.00
2023-05-04T04:17:34.684Z,100.00
2023-05-04T04:19:39.705Z,100.00
2023-05-04T04:21:44.670Z,100.00
2023-05-04T04:23:49.579Z,100.00
2023-05-04T04:25:57.179Z,100.00
2023-05-04T04:28:02.146Z,100.00
2023-05-04T04:30:07.656Z,100.00
2023-05-04T04:32:12.802Z,100.00
2023-05-04T04:34:18.138Z,100.00
2023-05-04T04:36:23.078Z,100.00
2023-05-04T04:38:28.118Z,100.00
2023-05-04T04:40:33.031Z,100.00
2023-05-04T04:42:40.593Z,100.00
2023-05-04T04:44:45.847Z,100.00
2023-05-04T04:46:51.227Z,100.00
2023-05-04T04:48:56.360Z,100.00
2023-05-04T04:51:01.252Z,100.00
2023-05-04T04:53:06.126Z,100.00
2023-05-04T04:55:12.099Z,100.00
2023-05-04T04:57:17.020Z,100.00
2023-05-04T04:59:24.987Z,100.00
2023-05-04T05:01:30.146Z,100.00
2023-05-04T05:03:34.970Z,100.00
2023-05-04T05:05:39.996Z,100.00
2023-05-04T05:07:44.924Z,100.00
2023-05-04T05:09:49.860Z,100.00
2023-05-04T05:11:54.850Z,100.00
2023-05-04T05:14:00.070Z,100.00
2023-05-04T05:16:07.679Z,100.00
2023-05-04T05:18:12.788Z,100.00
2023-05-04T05:20:17.749Z,100.00
2023-05-04T05:22:23.051Z,100.00
2023-05-04T05:24:28.075Z,100.00
2023-05-04T05:26:33.714Z,100.00
2023-05-04T05:28:38.719Z,100.00
2023-05-04T05:30:44.242Z,100.00
2023-05-04T05:32:52.190Z,100.00
2023-05-04T05:34:57.108Z,100.00
2023-05-04T05:37:02.043Z,100.00
2023-05-04T05:39:07.733Z,100.00
2023-05-04T05:41:12.794Z,100.00
2023-05-04T05:43:17.773Z,100.00
2023-05-04T05:45:22.884Z,100.00
2023-05-04T05:47:27.685Z,100.00
2023-05-04T05:49:35.500Z,100.00
2023-05-04T05:51:40.445Z,100.00
2023-05-04T05:53:45.793Z,100.00
2023-05-04T05:55:50.812Z,100.00
2023-05-04T05:57:55.754Z,100.00
2023-05-04T06:00:00.927Z,100.00
2023-05-04T06:02:06.198Z,100.00
2023-05-04T06:04:11.845Z,100.00
2023-05-04T06:06:19.647Z,100.00
2023-05-04T06:08:24.636Z,100.00
2023-05-04T06:10:29.973Z,100.00
2023-05-04T06:12:35.260Z,100.00
2023-05-04T06:14:40.145Z,100.00
2023-05-04T06:16:45.097Z,100.00
2023-05-04T06:18:50.079Z,100.00
2023-05-04T06:21:01.159Z,100.00
2023-05-04T06:23:11.641Z,100.00
2023-05-04T06:25:16.853Z,100.00
2023-05-04T06:27:23.598Z,100.00
2023-05-04T06:29:29.154Z,100.00
2023-05-04T06:31:34.177Z,100.00
2023-05-04T06:33:39.232Z,100.00
2023-05-04T06:35:45.406Z,100.00
2023-05-04T06:39:58.911Z,100.00
2023-05-04T06:42:03.882Z,100.00
2023-05-04T06:44:14.321Z,100.00
2023-05-04T06:46:19.370Z,100.00
2023-05-04T06:48:24.261Z,100.00
2023-05-04T06:50:29.690Z,100.00
2023-05-04T06:52:34.339Z,100.00
2023-05-04T06:54:40.401Z,100.00
2023-05-04T06:56:48.017Z,100.00
2023-05-04T06:58:53.148Z,100.00
2023-05-04T07:00:58.067Z,100.00
2023-05-04T07:03:03.113Z,100.00
2023-05-04T07:05:08.676Z,100.00
2023-05-04T07:07:13.593Z,100.00
2023-05-04T07:09:18.656Z,100.00
2023-05-04T07:11:23.710Z,100.00
2023-05-04T07:13:31.210Z,100.00
2023-05-04T07:15:37.041Z,100.00
2023-05-04T07:17:42.365Z,100.00
2023-05-04T07:19:50.080Z,100.00
2023-05-04T07:21:55.125Z,100.00
2023-05-04T07:24:00.058Z,100.00
2023-05-04T07:26:04.957Z,100.00
2023-05-04T07:28:09.868Z,100.00
2023-05-04T07:30:18.049Z,100.00
2023-05-04T07:32:23.085Z,100.00
2023-05-04T07:34:41.815Z,100.00
2023-05-04T07:36:49.677Z,100.00
2023-05-04T07:38:54.577Z,100.00
2023-05-04T07:40:59.864Z,100.00
2023-05-04T07:43:04.495Z,100.00
2023-05-04T07:45:11.244Z,100.00
2023-05-04T07:47:18.694Z,100.00
2023-05-04T07:49:23.662Z,100.00
2023-05-04T07:51:28.617Z,100.00
2023-05-04T07:53:33.528Z,100.00
2023-05-04T07:55:38.425Z,100.00
2023-05-04T07:57:43.358Z,99.89
2023-05-04T07:59:48.232Z,98.24
2023-05-04T08:01:53.468Z,98.43
2023-05-04T08:04:01.240Z,97.02
2023-05-04T08:06:06.380Z,97.02
2023-05-04T08:08:11.190Z,96.36
2023-05-04T08:10:16.242Z,95.80
2023-05-04T08:12:21.117Z,95.46
2023-05-04T08:14:26.082Z,95.18
2023-05-04T08:16:31.334Z,95.17
2023-05-04T08:18:37.314Z,95.83
2023-05-04T08:20:44.777Z,95.60
2023-05-04T08:22:50.153Z,95.13
2023-05-04T08:24:55.147Z,94.87
2023-05-04T08:27:07.126Z,92.59
2023-05-04T08:29:13.577Z,93.13
2023-05-04T08:31:18.836Z,93.27
2023-05-04T08:33:23.889Z,93.11
2023-05-04T08:35:29.069Z,92.76
2023-05-04T08:37:36.342Z,92.49
2023-05-04T08:39:42.155Z,93.09
2023-05-04T08:41:47.529Z,93.71
2023-05-04T08:43:52.883Z,93.37
2023-05-04T08:45:58.380Z,92.33
2023-05-04T08:48:04.243Z,91.85
2023-05-04T08:50:11.116Z,91.75
2023-05-04T08:52:16.987Z,91.83
2023-05-04T08:54:25.783Z,91.37
2023-05-04T08:56:30.909Z,90.79
2023-05-04T08:58:38.120Z,91.07
2023-05-04T09:00:45.877Z,90.17
2023-05-04T09:02:52.707Z,89.91
2023-05-04T09:04:57.700Z,88.33
2023-05-04T09:07:02.787Z,89.20
2023-05-04T09:09:07.554Z,88.32
2023-05-04T09:11:15.160Z,85.55
2023-05-04T09:13:20.172Z,86.30
2023-05-04T09:15:25.751Z,82.44
2023-05-04T09:17:30.923Z,77.01
2023-05-04T09:19:39.174Z,76.68
2023-05-04T09:21:44.156Z,77.83
2023-05-04T09:23:50.164Z,75.33
2023-05-04T09:25:56.625Z,76.32
2023-05-04T09:28:04.222Z,76.86
2023-05-04T09:30:11.549Z,78.49
2023-05-04T09:32:17.159Z,78.71
2023-05-04T09:34:22.508Z,77.87
2023-05-04T09:36:27.439Z,71.51
2023-05-04T09:38:34.960Z,73.07
2023-05-04T09:40:41.661Z,69.42
2023-05-04T09:42:46.676Z,65.67
2023-05-04T09:45:04.975Z,66.92
2023-05-04T09:47:10.894Z,68.40
2023-05-04T09:49:15.837Z,69.42
2023-05-04T09:51:21.814Z,67.67
2023-05-04T09:53:29.196Z,62.97
2023-05-04T09:55:34.360Z,60.36
2023-05-04T09:57:39.582Z,55.61
2023-05-04T09:59:45.801Z,58.91
2023-05-04T10:01:53.544Z,57.54
2023-05-04T10:03:59.106Z,60.40
2023-05-04T10:06:09.297Z,62.66
2023-05-04T10:08:15.559Z,62.47
2023-05-04T10:10:20.521Z,64.40
2023-05-04T10:12:25.207Z,64.96
2023-05-04T10:14:33.586Z,67.71
2023-05-04T10:16:47.625Z,68.59
2023-05-04T10:19:09.075Z,63.16
2023-05-04T10:21:31.054Z,56.02
2023-05-04T10:24:10.363Z,54.62
2023-05-04T10:26:36.271Z,54.25
2023-05-04T10:28:59.919Z,55.35
2023-05-04T10:31:06.505Z,52.30
2023-05-04T10:33:11.676Z,51.62
2023-05-04T10:35:20.335Z,50.44
2023-05-04T10:37:25.285Z,50.29
2023-05-04T10:39:30.820Z,50.87
2023-05-04T10:41:35.724Z,51.73
2023-05-04T10:43:40.758Z,51.27
2023-05-04T10:45:45.913Z,52.16
2023-05-04T10:48:00.471Z,52.25
2023-05-04T10:50:07.165Z,50.78
2023-05-04T10:52:16.411Z,50.70
2023-05-04T10:54:21.944Z,50.25
2023-05-04T10:56:28.372Z,50.97
2023-05-04T10:58:33.286Z,50.27
2023-05-04T11:00:42.574Z,51.57
2023-05-04T11:02:48.427Z,51.50
2023-05-04T11:05:04.518Z,52.64
2023-05-04T11:07:10.080Z,52.99
2023-05-04T11:09:17.845Z,47.04
2023-05-04T11:11:22.852Z,44.21
2023-05-04T11:13:27.612Z,43.59
2023-05-04T11:15:33.123Z,43.58
2023-05-04T11:17:47.546Z,43.67
2023-05-04T11:19:53.490Z,43.39
2023-05-04T11:21:58.632Z,42.42
2023-05-04T11:24:03.773Z,41.13
2023-05-04T11:26:12.603Z,39.57
2023-05-04T11:28:17.604Z,39.77
2023-05-04T11:30:22.369Z,40.44
2023-05-04T11:32:36.992Z,39.41
2023-05-04T11:34:42.106Z,36.92
2023-05-04T11:36:48.420Z,36.81
2023-05-04T11:38:54.608Z,35.87
2023-05-04T11:40:59.646Z,35.65
2023-05-04T11:43:07.431Z,34.80
2023-05-04T11:45:15.234Z,34.68
2023-05-04T11:47:20.803Z,33.88
2023-05-04T11:49:27.010Z,33.30
2023-05-04T11:51:31.988Z,34.92
2023-05-04T11:53:40.407Z,35.52
2023-05-04T11:55:45.498Z,36.27
2023-05-04T11:57:59.094Z,36.39
2023-05-04T12:00:07.857Z,35.26
2023-05-04T12:02:18.220Z,34.81
2023-05-04T12:04:23.202Z,34.82
2023-05-04T12:06:34.947Z,35.48
2023-05-04T12:08:42.529Z,36.58
2023-05-04T12:10:47.569Z,35.90
2023-05-04T12:12:52.363Z,35.15
2023-05-04T12:14:59.392Z,34.13
2023-05-04T12:17:06.923Z,33.83
2023-05-04T12:19:13.955Z,33.52
2023-05-04T12:21:21.689Z,33.58
2023-05-04T12:23:26.556Z,33.39
2023-05-04T12:25:31.531Z,33.06
2023-05-04T12:27:36.442Z,32.65
2023-05-04T12:29:41.746Z,32.67
2023-05-04T12:31:47.086Z,33.15
2023-05-04T12:33:55.346Z,33.02
2023-05-04T12:36:00.276Z,32.71
2023-05-04T12:38:05.133Z,32.44
2023-05-04T12:40:27.308Z,32.46
2023-05-04T12:42:33.457Z,32.67
2023-05-04T12:44:38.375Z,31.88
2023-05-04T12:46:43.334Z,30.96
2023-05-04T12:48:48.285Z,31.41
2023-05-04T12:50:56.328Z,31.39
2023-05-04T12:53:04.277Z,30.58
2023-05-04T12:55:10.673Z,31.48
2023-05-04T12:57:15.836Z,32.00
2023-05-04T12:59:21.967Z,32.21
2023-05-04T13:01:27.675Z,30.74
2023-05-04T13:03:32.846Z,29.63
2023-05-04T13:05:37.555Z,29.22
2023-05-04T13:07:45.315Z,29.53
2023-05-04T13:09:50.344Z,29.95
2023-05-04T13:11:55.125Z,30.00
2023-05-04T13:14:00.069Z,30.44
2023-05-04T13:16:06.072Z,30.52
2023-05-04T13:18:10.999Z,30.71
2023-05-04T13:20:16.556Z,29.91
2023-05-04T13:22:21.559Z,30.12
2023-05-04T13:24:29.850Z,29.99
2023-05-04T13:26:34.837Z,29.47
2023-05-04T13:28:39.555Z,29.55
2023-05-04T13:30:48.717Z,29.71
2023-05-04T13:32:56.494Z,29.29
2023-05-04T13:35:01.544Z,29.50
2023-05-04T13:37:06.848Z,28.59
2023-05-04T13:39:12.055Z,29.09
2023-05-04T13:41:19.671Z,29.44
2023-05-04T13:43:24.828Z,29.11
2023-05-04T13:45:31.403Z,29.76
2023-05-04T13:47:37.740Z,30.31
2023-05-04T13:49:42.906Z,29.58
2023-05-04T13:51:47.869Z,29.47
2023-05-04T13:53:52.776Z,28.97
2023-05-04T13:55:57.654Z,29.45
2023-05-04T13:58:04.951Z,29.27
2023-05-04T14:00:11.550Z,28.94
2023-05-04T14:02:16.706Z,27.66
2023-05-04T14:04:21.804Z,26.42
2023-05-04T14:06:26.682Z,25.80
2023-05-04T14:08:32.048Z,25.60
2023-05-04T14:10:37.633Z,25.50
2023-05-04T14:12:42.610Z,25.52
2023-05-04T14:14:50.939Z,25.37
2023-05-04T14:16:55.942Z,25.90
2023-05-04T14:19:00.718Z,24.59
2023-05-04T14:21:05.858Z,25.15
2023-05-04T14:23:10.856Z,25.28
2023-05-04T14:25:15.946Z,25.44
2023-05-04T14:27:21.292Z,26.08
2023-05-04T14:29:26.824Z,24.85
2023-05-04T14:31:34.550Z,24.88
2023-05-04T14:33:39.752Z,24.74
2023-05-04T14:35:47.950Z,25.16
2023-05-04T14:37:53.481Z,25.28
2023-05-04T14:39:59.685Z,25.33
2023-05-04T14:42:04.561Z,25.70
2023-05-04T14:44:09.499Z,25.42
2023-05-04T14:46:15.002Z,25.28
2023-05-04T14:48:24.473Z,24.57
2023-05-04T14:50:29.517Z,24.96
2023-05-04T14:52:34.255Z,24.16
2023-05-04T14:54:39.241Z,24.70
2023-05-04T14:56:44.450Z,24.59
2023-05-04T14:58:49.470Z,24.44
2023-05-04T15:00:54.604Z,23.89
2023-05-04T15:02:59.686Z,24.08
2023-05-04T15:05:10.230Z,23.62
2023-05-04T15:07:16.230Z,23.92
2023-05-04T15:09:21.287Z,23.39
2023-05-04T15:11:25.997Z,23.81
2023-05-04T15:13:32.180Z,23.97
2023-05-04T15:15:41.518Z,23.77
2023-05-04T15:17:46.456Z,24.14
2023-05-04T15:19:51.111Z,23.47
2023-05-04T15:21:58.720Z,23.69
2023-05-04T15:24:03.779Z,23.59
2023-05-04T15:26:08.665Z,22.92
2023-05-04T15:28:13.503Z,23.35
2023-05-04T15:30:19.071Z,23.42
2023-05-04T15:32:23.985Z,22.84
2023-05-04T15:34:29.008Z,23.44
2023-05-04T15:36:33.694Z,22.82
2023-05-04T15:38:41.248Z,22.51
2023-05-04T15:40:46.193Z,22.69
2023-05-04T15:42:51.356Z,21.48
2023-05-04T15:44:56.403Z,21.28
2023-05-04T15:47:01.575Z,21.43
2023-05-04T15:49:06.567Z,21.95
2023-05-04T15:51:13.968Z,21.38
2023-05-04T15:53:19.025Z,21.92
2023-05-04T15:55:27.047Z,21.53
2023-05-04T15:57:32.017Z,21.92
2023-05-04T15:59:36.975Z,21.32
2023-05-04T16:01:42.183Z,20.95
2023-05-04T16:03:47.365Z,21.15
2023-05-04T16:05:52.549Z,21.45
2023-05-04T16:07:57.937Z,20.78
2023-05-04T16:10:02.805Z,20.47
2023-05-04T16:12:10.907Z,20.74
2023-05-04T16:14:16.377Z,21.14
2023-05-04T16:16:21.612Z,21.37
2023-05-04T16:18:26.547Z,21.39
2023-05-04T16:20:31.542Z,22.11
2023-05-04T16:22:37.067Z,21.58
2023-05-04T16:24:42.038Z,22.24
2023-05-04T16:26:49.920Z,22.34
2023-05-04T16:28:57.694Z,22.65
2023-05-04T16:31:02.590Z,22.70
2023-05-04T16:33:07.360Z,22.73
2023-05-04T16:35:12.839Z,22.44
2023-05-04T16:37:19.024Z,22.17
2023-05-04T16:39:23.910Z,22.64
2023-05-04T16:41:30.846Z,22.54
2023-05-04T16:43:35.769Z,22.31
2023-05-04T16:45:43.155Z,22.12
2023-05-04T16:47:48.587Z,22.37
2023-05-04T16:49:53.552Z,22.83
2023-05-04T16:51:58.459Z,22.44
2023-05-04T16:54:03.370Z,21.97
2023-05-04T16:56:09.096Z,21.94
2023-05-04T16:58:14.068Z,22.36
2023-05-04T17:00:19.138Z,22.43
2023-05-04T17:02:26.886Z,22.38
2023-05-04T17:04:31.852Z,22.14
2023-05-04T17:06:36.582Z,22.11
2023-05-04T17:08:41.582Z,22.40
2023-05-04T17:10:46.248Z,22.34
2023-05-04T17:12:52.223Z,22.53
2023-05-04T17:14:57.176Z,23.11
2023-05-04T17:17:02.037Z,23.00
2023-05-04T17:19:11.077Z,22.80
2023-05-04T17:21:16.263Z,23.12
2023-05-04T17:23:21.057Z,22.95
2023-05-04T17:25:26.030Z,23.47
2023-05-04T17:27:30.755Z,22.99
2023-05-04T17:29:35.699Z,23.81
2023-05-04T17:31:40.562Z,24.06
2023-05-04T17:33:46.433Z,23.94
2023-05-04T17:35:54.327Z,24.07
2023-05-04T17:37:59.352Z,24.16
2023-05-04T17:40:04.397Z,24.27
2023-05-04T17:42:10.909Z,24.23
2023-05-04T17:44:16.032Z,24.27
2023-05-04T17:46:20.674Z,24.67
2023-05-04T17:48:27.028Z,24.27
2023-05-04T17:50:31.981Z,24.47
2023-05-04T17:52:39.508Z,24.71
2023-05-04T17:54:44.401Z,24.59
2023-05-04T17:56:49.344Z,24.86
2023-05-04T17:58:54.296Z,24.64
2023-05-04T18:00:59.331Z,24.93
2023-05-04T18:03:04.256Z,24.77
2023-05-04T18:05:10.774Z,24.68
2023-05-04T18:07:15.639Z,24.91
2023-05-04T18:09:23.286Z,25.40
2023-05-04T18:11:28.208Z,25.18
2023-05-04T18:13:33.150Z,25.73
2023-05-04T18:15:38.124Z,25.59
2023-05-04T18:17:43.088Z,25.53
2023-05-04T18:19:47.976Z,26.19
2023-05-04T18:21:52.940Z,26.28
2023-05-04T18:23:57.837Z,25.97
2023-05-04T18:26:05.414Z,26.18
2023-05-04T18:28:10.389Z,26.30
2023-05-04T18:30:15.534Z,26.08
2023-05-04T18:32:20.163Z,26.05
2023-05-04T18:34:25.197Z,26.21
2023-05-04T18:36:30.191Z,26.48
2023-05-04T18:38:37.306Z,26.60
2023-05-04T18:40:42.202Z,26.49
2023-05-04T18:42:49.822Z,26.59
2023-05-04T18:44:55.032Z,27.04
2023-05-04T18:46:59.982Z,26.70
2023-05-04T18:49:04.868Z,27.18
2023-05-04T18:51:09.913Z,27.15
2023-05-04T18:53:14.903Z,27.37
2023-05-04T18:55:22.107Z,27.14
2023-05-04T18:57:29.431Z,27.08
2023-05-04T18:59:37.887Z,26.68
2023-05-04T19:01:44.373Z,26.49
2023-05-04T19:03:49.382Z,27.05
2023-05-04T19:05:54.452Z,26.29
2023-05-04T19:07:59.340Z,26.28
2023-05-04T19:10:04.323Z,26.60
2023-05-04T19:12:09.876Z,26.45
2023-05-04T19:14:15.090Z,26.53
2023-05-04T19:16:22.941Z,26.37
2023-05-04T19:18:27.849Z,26.52
2023-05-04T19:20:33.138Z,26.85
2023-05-04T19:22:38.187Z,26.66
2023-05-04T19:24:43.686Z,26.86
2023-05-04T19:26:48.524Z,26.85
2023-05-04T19:28:53.567Z,26.77
2023-05-04T19:30:58.696Z,27.20
2023-05-04T19:33:08.816Z,27.41
2023-05-04T19:35:14.592Z,27.72
2023-05-04T19:37:19.635Z,27.63
2023-05-04T19:39:24.485Z,28.25
2023-05-04T19:41:29.606Z,28.28
2023-05-04T19:43:34.584Z,28.26
2023-05-04T19:45:39.852Z,28.31
2023-05-04T19:47:45.799Z,28.78
2023-05-04T19:49:54.465Z,28.84
2023-05-04T19:51:59.390Z,28.82
2023-05-04T19:54:04.370Z,28.99
2023-05-04T19:56:09.626Z,29.33
2023-05-04T19:58:14.692Z,29.55
2023-05-04T20:00:20.098Z,29.91
2023-05-04T20:02:25.359Z,29.89
2023-05-04T20:04:30.094Z,30.16
2023-05-04T20:06:37.692Z,30.73
2023-05-04T20:08:44.257Z,31.11
2023-05-04T20:10:49.222Z,31.30
2023-05-04T20:12:54.204Z,31.25
2023-05-04T20:14:59.610Z,31.60
2023-05-04T20:17:04.600Z,31.63
2023-05-04T20:19:09.712Z,31.82
2023-05-04T20:21:14.692Z,31.84
2023-05-04T20:23:22.237Z,31.74
2023-05-04T20:25:27.750Z,32.05
2023-05-04T20:27:32.969Z,31.98
2023-05-04T20:29:38.055Z,32.48
2023-05-04T20:31:44.151Z,32.56
2023-05-04T20:33:49.235Z,32.77
2023-05-04T20:35:54.297Z,32.71
2023-05-04T20:37:59.448Z,32.94
2023-05-04T20:40:08.531Z,33.38
2023-05-04T20:42:13.762Z,33.53
2023-05-04T20:44:18.631Z,33.78
2023-05-04T20:46:23.639Z,34.04
2023-05-04T20:48:28.512Z,34.55
2023-05-04T20:50:33.488Z,34.86
2023-05-04T20:52:38.718Z,35.17
2023-05-04T20:54:44.440Z,35.35
2023-05-04T20:56:52.006Z,35.28
2023-05-04T20:58:56.909Z,35.36
2023-05-04T21:01:05.693Z,36.01
2023-05-04T21:03:10.784Z,36.06
2023-05-04T21:05:15.552Z,36.35
2023-05-04T21:07:20.705Z,36.45
2023-05-04T21:09:26.582Z,36.77
2023-05-04T21:11:31.621Z,36.88
2023-05-04T21:13:39.076Z,37.00
2023-05-04T21:15:44.484Z,37.14
2023-05-04T21:17:50.085Z,37.24
2023-05-04T21:19:55.278Z,37.35
2023-05-04T21:21:59.938Z,38.81
2023-05-04T21:24:04.850Z,41.69
2023-05-04T21:26:09.804Z,41.70
2023-05-04T21:28:14.694Z,42.08
2023-05-04T21:30:22.700Z,41.96
2023-05-04T21:32:27.711Z,42.57
2023-05-04T21:34:32.401Z,43.38
2023-05-04T21:36:38.926Z,43.37
2023-05-04T21:38:45.754Z,44.08
2023-05-04T21:40:50.846Z,44.40
2023-05-04T21:42:55.676Z,45.48
2023-05-04T21:45:00.948Z,45.78
2023-05-04T21:47:08.510Z,46.19
2023-05-04T21:49:13.537Z,46.57
2023-05-04T21:51:20.655Z,46.25
2023-05-04T21:53:26.015Z,47.19
2023-05-04T21:55:32.114Z,47.72
2023-05-04T21:57:37.577Z,47.75
2023-05-04T21:59:44.538Z,47.96
2023-05-04T22:01:49.439Z,48.11
2023-05-04T22:03:56.929Z,49.00
2023-05-04T22:06:02.067Z,49.61
2023-05-04T22:08:07.078Z,49.51
2023-05-04T22:10:12.696Z,49.16
2023-05-04T22:12:17.601Z,49.70
2023-05-04T22:14:22.725Z,50.16
2023-05-04T22:16:27.546Z,51.36
2023-05-04T22:18:32.769Z,51.26
2023-05-04T22:20:41.548Z,52.07
2023-05-04T22:22:46.473Z,51.93
2023-05-04T22:24:51.370Z,52.09
2023-05-04T22:26:56.782Z,52.62
2023-05-04T22:29:01.885Z,53.26
2023-05-04T22:31:06.895Z,53.26
2023-05-04T22:33:11.805Z,53.57
2023-05-04T22:35:17.136Z,55.68
2023-05-04T22:37:24.619Z,57.75
2023-05-04T22:39:29.626Z,58.83
2023-05-04T22:41:34.577Z,59.77
2023-05-04T22:43:40.807Z,60.43
2023-05-04T22:45:45.966Z,60.79
2023-05-04T22:47:51.416Z,61.33
2023-05-04T22:49:57.673Z,60.63
2023-05-04T22:52:02.597Z,60.92
2023-05-04T22:54:10.208Z,61.53
2023-05-04T22:56:15.056Z,60.91
2023-05-04T22:58:20.084Z,60.77
2023-05-04T23:00:25.735Z,61.18
2023-05-04T23:02:30.691Z,61.03
2023-05-04T23:04:35.719Z,61.24
2023-05-04T23:06:41.449Z,61.83
2023-05-04T23:08:46.402Z,62.08
2023-05-04T23:10:53.766Z,64.73
2023-05-04T23:12:58.724Z,63.83
2023-05-04T23:15:03.841Z,64.55
2023-05-04T23:17:09.566Z,64.64
2023-05-04T23:19:14.879Z,65.12
2023-05-04T23:21:19.787Z,64.84
2023-05-04T23:23:24.840Z,65.87
2023-05-04T23:25:29.703Z,66.63
2023-05-04T23:27:37.256Z,67.06
2023-05-04T23:29:42.539Z,68.17
2023-05-04T23:31:47.852Z,68.87
2023-05-04T23:33:52.916Z,69.59
2023-05-04T23:35:58.483Z,70.11
2023-05-04T23:38:04.149Z,70.98
2023-05-04T23:40:11.143Z,78.40
2023-05-04T23:42:16.141Z,85.60
2023-05-04T23:44:24.029Z,83.77
2023-05-04T23:46:29.085Z,81.52
2023-05-04T23:48:34.665Z,83.59
2023-05-04T23:50:39.708Z,82.69
2023-05-04T23:52:44.877Z,84.88
2023-05-04T23:54:49.573Z,87.92
2023-05-04T23:56:54.469Z,91.48
2023-05-04T23:58:59.324Z,88.34
